sensor_id;sensor_type;location;lat;lon;timestamp;P1;durP1;ratioP1;P2;durP2;ratioP2
7833;SDS011;3962;42.696;23.354;2023-03-19T00:02:02;24.57;;;13.90;;
7833;SDS011;3962;42.696;23.354;2023-03-19T00:04:29;29.30;;;14.57;;
7833;SDS011;3962;42.696;23.354;2023-03-19T00:06:56;35.30;;;17.33;;
7833;SDS011;3962;42.696;23.354;2023-03-19T00:09:23;31.33;;;15.60;;
7833;SDS011;3962;42.696;23.354;2023-03-19T00:11:51;33.10;;;15.10;;
7833;SDS011;3962;42.696;23.354;2023-03-19T00:14:18;25.60;;;14.67;;
7833;SDS011;3962;42.696;23.354;2023-03-19T00:16:45;31.70;;;15.17;;
7833;SDS011;3962;42.696;23.354;2023-03-19T00:19:12;32.37;;;15.33;;
7833;SDS011;3962;42.696;23.354;2023-03-19T00:21:39;29.60;;;15.63;;
7833;SDS011;3962;42.696;23.354;2023-03-19T00:24:06;33.87;;;16.67;;
7833;SDS011;3962;42.696;23.354;2023-03-19T00:26:34;33.30;;;17.17;;
7833;SDS011;3962;42.696;23.354;2023-03-19T00:29:03;31.03;;;16.40;;
7833;SDS011;3962;42.696;23.354;2023-03-19T00:31:30;31.57;;;16.73;;
7833;SDS011;3962;42.696;23.354;2023-03-19T00:33:57;34.97;;;17.97;;
7833;SDS011;3962;42.696;23.354;2023-03-19T00:36:25;31.67;;;18.03;;
7833;SDS011;3962;42.696;23.354;2023-03-19T00:38:54;32.47;;;17.07;;
7833;SDS011;3962;42.696;23.354;2023-03-19T00:41:21;31.20;;;17.63;;
7833;SDS011;3962;42.696;23.354;2023-03-19T00:43:51;37.70;;;19.27;;
7833;SDS011;3962;42.696;23.354;2023-03-19T00:46:19;49.10;;;25.37;;
7833;SDS011;3962;42.696;23.354;2023-03-19T00:48:46;44.33;;;22.57;;
7833;SDS011;3962;42.696;23.354;2023-03-19T00:51:13;48.17;;;25.13;;
7833;SDS011;3962;42.696;23.354;2023-03-19T00:53:41;59.97;;;28.00;;
7833;SDS011;3962;42.696;23.354;2023-03-19T00:56:09;63.17;;;30.00;;
7833;SDS011;3962;42.696;23.354;2023-03-19T00:58:36;68.23;;;30.90;;
7833;SDS011;3962;42.696;23.354;2023-03-19T01:01:05;73.40;;;34.53;;
7833;SDS011;3962;42.696;23.354;2023-03-19T01:03:33;88.07;;;37.00;;
7833;SDS011;3962;42.696;23.354;2023-03-19T01:06:00;70.63;;;32.80;;
7833;SDS011;3962;42.696;23.354;2023-03-19T01:08:27;67.77;;;30.27;;
7833;SDS011;3962;42.696;23.354;2023-03-19T01:10:55;45.00;;;22.40;;
7833;SDS011;3962;42.696;23.354;2023-03-19T01:13:22;60.13;;;28.87;;
7833;SDS011;3962;42.696;23.354;2023-03-19T01:15:50;53.37;;;25.63;;
7833;SDS011;3962;42.696;23.354;2023-03-19T01:18:18;63.70;;;29.63;;
7833;SDS011;3962;42.696;23.354;2023-03-19T01:20:46;75.60;;;34.33;;
7833;SDS011;3962;42.696;23.354;2023-03-19T01:23:13;51.23;;;25.37;;
7833;SDS011;3962;42.696;23.354;2023-03-19T01:25:40;56.37;;;26.80;;
7833;SDS011;3962;42.696;23.354;2023-03-19T01:28:07;46.47;;;22.13;;
7833;SDS011;3962;42.696;23.354;2023-03-19T01:30:33;54.70;;;25.33;;
7833;SDS011;3962;42.696;23.354;2023-03-19T01:33:00;46.47;;;23.70;;
7833;SDS011;3962;42.696;23.354;2023-03-19T01:35:27;46.57;;;23.37;;
7833;SDS011;3962;42.696;23.354;2023-03-19T01:37:55;46.63;;;24.83;;
7833;SDS011;3962;42.696;23.354;2023-03-19T01:40:22;53.83;;;26.40;;
7833;SDS011;3962;42.696;23.354;2023-03-19T01:42:49;48.83;;;27.03;;
7833;SDS011;3962;42.696;23.354;2023-03-19T01:45:30;61.63;;;27.90;;
7833;SDS011;3962;42.696;23.354;2023-03-19T01:48:01;56.00;;;26.17;;
7833;SDS011;3962;42.696;23.354;2023-03-19T01:50:30;57.27;;;28.23;;
7833;SDS011;3962;42.696;23.354;2023-03-19T01:53:06;64.80;;;28.23;;
7833;SDS011;3962;42.696;23.354;2023-03-19T01:55:34;59.63;;;27.80;;
7833;SDS011;3962;42.696;23.354;2023-03-19T01:58:01;64.20;;;30.30;;
7833;SDS011;3962;42.696;23.354;2023-03-19T02:00:30;66.77;;;28.53;;
7833;SDS011;3962;42.696;23.354;2023-03-19T02:03:00;67.23;;;30.80;;
7833;SDS011;3962;42.696;23.354;2023-03-19T02:05:27;65.47;;;31.43;;
7833;SDS011;3962;42.696;23.354;2023-03-19T02:07:56;63.03;;;30.27;;
7833;SDS011;3962;42.696;23.354;2023-03-19T02:10:27;61.53;;;29.47;;
7833;SDS011;3962;42.696;23.354;2023-03-19T02:12:55;57.17;;;27.90;;
7833;SDS011;3962;42.696;23.354;2023-03-19T02:15:22;56.40;;;25.83;;
7833;SDS011;3962;42.696;23.354;2023-03-19T02:17:48;61.63;;;29.67;;
7833;SDS011;3962;42.696;23.354;2023-03-19T02:20:16;57.60;;;27.13;;
7833;SDS011;3962;42.696;23.354;2023-03-19T02:22:51;55.53;;;26.90;;
7833;SDS011;3962;42.696;23.354;2023-03-19T02:25:27;62.13;;;27.60;;
7833;SDS011;3962;42.696;23.354;2023-03-19T02:27:59;60.27;;;28.40;;
7833;SDS011;3962;42.696;23.354;2023-03-19T02:30:28;45.83;;;23.73;;
7833;SDS011;3962;42.696;23.354;2023-03-19T02:32:56;52.77;;;26.53;;
7833;SDS011;3962;42.696;23.354;2023-03-19T02:35:23;51.33;;;24.90;;
7833;SDS011;3962;42.696;23.354;2023-03-19T02:37:52;53.63;;;24.97;;
7833;SDS011;3962;42.696;23.354;2023-03-19T02:40:19;52.40;;;25.23;;
7833;SDS011;3962;42.696;23.354;2023-03-19T02:42:49;53.83;;;25.93;;
7833;SDS011;3962;42.696;23.354;2023-03-19T02:45:18;57.50;;;26.23;;
7833;SDS011;3962;42.696;23.354;2023-03-19T02:47:45;57.07;;;28.23;;
7833;SDS011;3962;42.696;23.354;2023-03-19T02:50:12;49.23;;;26.17;;
7833;SDS011;3962;42.696;23.354;2023-03-19T02:52:39;49.37;;;24.27;;
7833;SDS011;3962;42.696;23.354;2023-03-19T02:55:06;50.07;;;25.63;;
7833;SDS011;3962;42.696;23.354;2023-03-19T02:57:33;54.17;;;26.93;;
7833;SDS011;3962;42.696;23.354;2023-03-19T03:00:00;60.50;;;28.43;;
7833;SDS011;3962;42.696;23.354;2023-03-19T03:02:30;43.83;;;22.70;;
7833;SDS011;3962;42.696;23.354;2023-03-19T03:04:56;44.90;;;19.17;;
7833;SDS011;3962;42.696;23.354;2023-03-19T03:07:23;33.17;;;16.90;;
7833;SDS011;3962;42.696;23.354;2023-03-19T03:09:51;33.23;;;15.20;;
7833;SDS011;3962;42.696;23.354;2023-03-19T03:12:17;25.27;;;13.90;;
7833;SDS011;3962;42.696;23.354;2023-03-19T03:14:45;19.70;;;13.30;;
7833;SDS011;3962;42.696;23.354;2023-03-19T03:17:13;26.80;;;12.97;;
7833;SDS011;3962;42.696;23.354;2023-03-19T03:19:41;24.00;;;12.83;;
7833;SDS011;3962;42.696;23.354;2023-03-19T03:22:08;21.57;;;12.37;;
7833;SDS011;3962;42.696;23.354;2023-03-19T03:24:35;20.33;;;11.83;;
7833;SDS011;3962;42.696;23.354;2023-03-19T03:27:03;23.30;;;12.20;;
7833;SDS011;3962;42.696;23.354;2023-03-19T03:29:30;22.53;;;12.53;;
7833;SDS011;3962;42.696;23.354;2023-03-19T03:31:57;21.07;;;11.50;;
7833;SDS011;3962;42.696;23.354;2023-03-19T03:34:24;21.80;;;11.80;;
7833;SDS011;3962;42.696;23.354;2023-03-19T03:36:52;21.47;;;12.87;;
7833;SDS011;3962;42.696;23.354;2023-03-19T03:39:19;26.20;;;14.17;;
7833;SDS011;3962;42.696;23.354;2023-03-19T03:41:46;24.67;;;12.90;;
7833;SDS011;3962;42.696;23.354;2023-03-19T03:44:13;23.73;;;14.73;;
7833;SDS011;3962;42.696;23.354;2023-03-19T03:46:40;22.80;;;14.00;;
7833;SDS011;3962;42.696;23.354;2023-03-19T03:49:07;25.33;;;15.87;;
7833;SDS011;3962;42.696;23.354;2023-03-19T03:51:34;29.83;;;15.37;;
7833;SDS011;3962;42.696;23.354;2023-03-19T03:54:03;26.60;;;16.57;;
7833;SDS011;3962;42.696;23.354;2023-03-19T03:56:30;27.40;;;17.17;;
7833;SDS011;3962;42.696;23.354;2023-03-19T03:58:57;28.63;;;17.50;;
7833;SDS011;3962;42.696;23.354;2023-03-19T04:01:25;27.40;;;18.33;;
7833;SDS011;3962;42.696;23.354;2023-03-19T04:03:52;32.20;;;18.57;;
7833;SDS011;3962;42.696;23.354;2023-03-19T04:06:20;31.10;;;17.77;;
7833;SDS011;3962;42.696;23.354;2023-03-19T04:08:48;30.13;;;17.37;;
7833;SDS011;3962;42.696;23.354;2023-03-19T04:11:17;30.30;;;16.47;;
7833;SDS011;3962;42.696;23.354;2023-03-19T04:13:44;23.33;;;15.90;;
7833;SDS011;3962;42.696;23.354;2023-03-19T04:16:11;26.67;;;15.40;;
7833;SDS011;3962;42.696;23.354;2023-03-19T04:18:38;28.53;;;15.47;;
7833;SDS011;3962;42.696;23.354;2023-03-19T04:21:05;24.47;;;16.63;;
7833;SDS011;3962;42.696;23.354;2023-03-19T04:23:33;23.93;;;13.87;;
7833;SDS011;3962;42.696;23.354;2023-03-19T04:26:01;23.00;;;14.43;;
7833;SDS011;3962;42.696;23.354;2023-03-19T04:28:31;23.20;;;16.00;;
7833;SDS011;3962;42.696;23.354;2023-03-19T04:30:58;25.60;;;15.40;;
7833;SDS011;3962;42.696;23.354;2023-03-19T04:33:25;34.63;;;17.43;;
7833;SDS011;3962;42.696;23.354;2023-03-19T04:35:52;31.43;;;15.43;;
7833;SDS011;3962;42.696;23.354;2023-03-19T04:38:19;23.57;;;15.47;;
7833;SDS011;3962;42.696;23.354;2023-03-19T04:40:46;33.03;;;20.37;;
7833;SDS011;3962;42.696;23.354;2023-03-19T04:43:13;54.80;;;33.70;;
7833;SDS011;3962;42.696;23.354;2023-03-19T04:45:41;62.93;;;35.27;;
7833;SDS011;3962;42.696;23.354;2023-03-19T04:48:08;72.60;;;39.20;;
7833;SDS011;3962;42.696;23.354;2023-03-19T04:50:35;62.57;;;38.23;;
7833;SDS011;3962;42.696;23.354;2023-03-19T04:53:02;68.97;;;37.97;;
7833;SDS011;3962;42.696;23.354;2023-03-19T04:55:29;74.20;;;40.00;;
7833;SDS011;3962;42.696;23.354;2023-03-19T04:57:55;83.80;;;40.73;;
7833;SDS011;3962;42.696;23.354;2023-03-19T05:00:22;84.00;;;44.33;;
7833;SDS011;3962;42.696;23.354;2023-03-19T05:02:50;86.93;;;44.77;;
7833;SDS011;3962;42.696;23.354;2023-03-19T05:05:17;81.17;;;42.60;;
7833;SDS011;3962;42.696;23.354;2023-03-19T05:07:44;91.97;;;46.53;;
7833;SDS011;3962;42.696;23.354;2023-03-19T05:10:11;90.10;;;48.00;;
7833;SDS011;3962;42.696;23.354;2023-03-19T05:12:38;86.97;;;44.80;;
7833;SDS011;3962;42.696;23.354;2023-03-19T05:15:05;78.77;;;43.20;;
7833;SDS011;3962;42.696;23.354;2023-03-19T05:17:33;75.00;;;39.93;;
7833;SDS011;3962;42.696;23.354;2023-03-19T05:20:03;78.70;;;43.33;;
7833;SDS011;3962;42.696;23.354;2023-03-19T05:22:30;72.87;;;38.20;;
7833;SDS011;3962;42.696;23.354;2023-03-19T05:24:59;71.33;;;39.13;;
7833;SDS011;3962;42.696;23.354;2023-03-19T05:27:26;76.70;;;41.27;;
7833;SDS011;3962;42.696;23.354;2023-03-19T05:29:53;83.17;;;42.03;;
7833;SDS011;3962;42.696;23.354;2023-03-19T05:32:20;71.70;;;38.80;;
7833;SDS011;3962;42.696;23.354;2023-03-19T05:34:46;85.80;;;44.73;;
7833;SDS011;3962;42.696;23.354;2023-03-19T05:37:15;83.43;;;45.10;;
7833;SDS011;3962;42.696;23.354;2023-03-19T05:39:42;57.50;;;34.70;;
7833;SDS011;3962;42.696;23.354;2023-03-19T05:42:09;67.00;;;35.00;;
7833;SDS011;3962;42.696;23.354;2023-03-19T05:44:36;53.17;;;31.13;;
7833;SDS011;3962;42.696;23.354;2023-03-19T05:47:03;48.23;;;28.33;;
7833;SDS011;3962;42.696;23.354;2023-03-19T05:49:31;34.63;;;20.27;;
7833;SDS011;3962;42.696;23.354;2023-03-19T05:51:57;28.87;;;17.23;;
7833;SDS011;3962;42.696;23.354;2023-03-19T05:54:26;32.40;;;16.80;;
7833;SDS011;3962;42.696;23.354;2023-03-19T05:56:53;25.60;;;16.77;;
7833;SDS011;3962;42.696;23.354;2023-03-19T05:59:19;26.10;;;14.73;;
7833;SDS011;3962;42.696;23.354;2023-03-19T06:01:46;23.10;;;13.90;;
7833;SDS011;3962;42.696;23.354;2023-03-19T06:04:13;23.93;;;13.73;;
7833;SDS011;3962;42.696;23.354;2023-03-19T06:06:40;25.07;;;12.77;;
7833;SDS011;3962;42.696;23.354;2023-03-19T06:09:07;19.07;;;12.97;;
7833;SDS011;3962;42.696;23.354;2023-03-19T06:11:35;23.17;;;12.77;;
7833;SDS011;3962;42.696;23.354;2023-03-19T06:14:04;17.07;;;10.90;;
7833;SDS011;3962;42.696;23.354;2023-03-19T06:16:31;22.70;;;12.87;;
7833;SDS011;3962;42.696;23.354;2023-03-19T06:18:58;22.50;;;12.40;;
7833;SDS011;3962;42.696;23.354;2023-03-19T06:21:25;23.30;;;13.47;;
7833;SDS011;3962;42.696;23.354;2023-03-19T06:23:53;23.07;;;13.53;;
7833;SDS011;3962;42.696;23.354;2023-03-19T06:26:20;23.67;;;14.17;;
7833;SDS011;3962;42.696;23.354;2023-03-19T06:28:49;26.03;;;13.23;;
7833;SDS011;3962;42.696;23.354;2023-03-19T06:31:16;23.57;;;12.87;;
7833;SDS011;3962;42.696;23.354;2023-03-19T06:33:43;21.03;;;13.53;;
7833;SDS011;3962;42.696;23.354;2023-03-19T06:36:10;25.00;;;13.03;;
7833;SDS011;3962;42.696;23.354;2023-03-19T06:38:37;21.10;;;12.53;;
7833;SDS011;3962;42.696;23.354;2023-03-19T06:41:04;21.73;;;12.37;;
7833;SDS011;3962;42.696;23.354;2023-03-19T06:43:31;20.77;;;12.37;;
7833;SDS011;3962;42.696;23.354;2023-03-19T06:46:02;23.60;;;13.73;;
7833;SDS011;3962;42.696;23.354;2023-03-19T06:48:29;25.30;;;14.60;;
7833;SDS011;3962;42.696;23.354;2023-03-19T06:50:56;26.00;;;13.77;;
7833;SDS011;3962;42.696;23.354;2023-03-19T06:53:23;21.73;;;13.50;;
7833;SDS011;3962;42.696;23.354;2023-03-19T06:55:50;19.27;;;12.33;;
7833;SDS011;3962;42.696;23.354;2023-03-19T06:58:17;19.73;;;12.37;;
7833;SDS011;3962;42.696;23.354;2023-03-19T07:00:44;23.73;;;12.87;;
7833;SDS011;3962;42.696;23.354;2023-03-19T07:03:13;22.93;;;13.33;;
7833;SDS011;3962;42.696;23.354;2023-03-19T07:05:40;21.33;;;13.07;;
7833;SDS011;3962;42.696;23.354;2023-03-19T07:08:06;21.33;;;12.83;;
7833;SDS011;3962;42.696;23.354;2023-03-19T07:10:36;18.97;;;11.67;;
7833;SDS011;3962;42.696;23.354;2023-03-19T07:13:03;24.40;;;14.83;;
7833;SDS011;3962;42.696;23.354;2023-03-19T07:15:30;24.63;;;13.23;;
7833;SDS011;3962;42.696;23.354;2023-03-19T07:17:56;20.63;;;12.03;;
7833;SDS011;3962;42.696;23.354;2023-03-19T07:20:25;23.63;;;12.30;;
7833;SDS011;3962;42.696;23.354;2023-03-19T07:22:51;19.77;;;11.40;;
7833;SDS011;3962;42.696;23.354;2023-03-19T07:25:19;16.17;;;11.30;;
7833;SDS011;3962;42.696;23.354;2023-03-19T07:27:46;19.70;;;11.60;;
7833;SDS011;3962;42.696;23.354;2023-03-19T07:30:13;17.20;;;10.80;;
7833;SDS011;3962;42.696;23.354;2023-03-19T07:32:40;15.57;;;11.17;;
7833;SDS011;3962;42.696;23.354;2023-03-19T07:35:08;18.10;;;10.30;;
7833;SDS011;3962;42.696;23.354;2023-03-19T07:37:37;17.53;;;11.00;;
7833;SDS011;3962;42.696;23.354;2023-03-19T07:40:04;16.03;;;10.80;;
7833;SDS011;3962;42.696;23.354;2023-03-19T07:42:31;15.97;;;10.23;;
7833;SDS011;3962;42.696;23.354;2023-03-19T07:45:00;21.03;;;11.93;;
7833;SDS011;3962;42.696;23.354;2023-03-19T07:47:28;18.80;;;11.37;;
7833;SDS011;3962;42.696;23.354;2023-03-19T07:49:55;18.53;;;11.23;;
7833;SDS011;3962;42.696;23.354;2023-03-19T07:52:22;18.27;;;11.83;;
7833;SDS011;3962;42.696;23.354;2023-03-19T07:54:50;19.97;;;11.13;;
7833;SDS011;3962;42.696;23.354;2023-03-19T07:57:17;21.50;;;11.13;;
7833;SDS011;3962;42.696;23.354;2023-03-19T07:59:45;16.87;;;11.03;;
7833;SDS011;3962;42.696;23.354;2023-03-19T08:02:12;17.83;;;10.80;;
7833;SDS011;3962;42.696;23.354;2023-03-19T08:04:39;16.77;;;10.03;;
7833;SDS011;3962;42.696;23.354;2023-03-19T08:07:07;19.97;;;10.30;;
7833;SDS011;3962;42.696;23.354;2023-03-19T08:09:35;13.00;;;8.60;;
7833;SDS011;3962;42.696;23.354;2023-03-19T08:12:04;12.67;;;8.40;;
7833;SDS011;3962;42.696;23.354;2023-03-19T08:14:31;13.97;;;8.77;;
7833;SDS011;3962;42.696;23.354;2023-03-19T08:16:58;16.07;;;8.83;;
7833;SDS011;3962;42.696;23.354;2023-03-19T08:19:25;15.77;;;9.40;;
7833;SDS011;3962;42.696;23.354;2023-03-19T08:21:54;15.80;;;8.23;;
7833;SDS011;3962;42.696;23.354;2023-03-19T08:24:21;14.00;;;9.03;;
7833;SDS011;3962;42.696;23.354;2023-03-19T08:26:49;33.03;;;9.83;;
7833;SDS011;3962;42.696;23.354;2023-03-19T08:29:17;17.30;;;9.17;;
7833;SDS011;3962;42.696;23.354;2023-03-19T08:31:45;14.93;;;8.40;;
7833;SDS011;3962;42.696;23.354;2023-03-19T08:34:12;11.47;;;8.00;;
7833;SDS011;3962;42.696;23.354;2023-03-19T08:36:39;15.80;;;9.00;;
7833;SDS011;3962;42.696;23.354;2023-03-19T08:39:06;16.10;;;8.57;;
7833;SDS011;3962;42.696;23.354;2023-03-19T08:41:33;13.67;;;7.80;;
7833;SDS011;3962;42.696;23.354;2023-03-19T08:44:00;14.70;;;8.50;;
7833;SDS011;3962;42.696;23.354;2023-03-19T08:46:29;13.30;;;7.90;;
7833;SDS011;3962;42.696;23.354;2023-03-19T08:48:56;13.07;;;7.90;;
7833;SDS011;3962;42.696;23.354;2023-03-19T08:51:23;13.17;;;8.73;;
7833;SDS011;3962;42.696;23.354;2023-03-19T08:53:50;15.13;;;9.83;;
7833;SDS011;3962;42.696;23.354;2023-03-19T08:56:17;12.07;;;8.63;;
7833;SDS011;3962;42.696;23.354;2023-03-19T08:58:44;12.83;;;8.70;;
7833;SDS011;3962;42.696;23.354;2023-03-19T09:01:11;12.60;;;8.10;;
7833;SDS011;3962;42.696;23.354;2023-03-19T09:03:41;13.13;;;8.63;;
7833;SDS011;3962;42.696;23.354;2023-03-19T09:06:10;12.90;;;8.50;;
7833;SDS011;3962;42.696;23.354;2023-03-19T09:08:38;12.87;;;7.63;;
7833;SDS011;3962;42.696;23.354;2023-03-19T09:11:08;11.77;;;8.23;;
7833;SDS011;3962;42.696;23.354;2023-03-19T09:13:35;13.97;;;9.07;;
7833;SDS011;3962;42.696;23.354;2023-03-19T09:16:03;19.27;;;8.93;;
7833;SDS011;3962;42.696;23.354;2023-03-19T09:18:31;15.23;;;8.80;;
7833;SDS011;3962;42.696;23.354;2023-03-19T09:21:00;11.13;;;7.10;;
7833;SDS011;3962;42.696;23.354;2023-03-19T09:23:28;8.33;;;5.17;;
7833;SDS011;3962;42.696;23.354;2023-03-19T09:25:55;9.73;;;5.50;;
7833;SDS011;3962;42.696;23.354;2023-03-19T09:28:22;9.70;;;6.40;;
7833;SDS011;3962;42.696;23.354;2023-03-19T09:30:50;10.70;;;7.20;;
7833;SDS011;3962;42.696;23.354;2023-03-19T09:33:17;8.40;;;6.27;;
7833;SDS011;3962;42.696;23.354;2023-03-19T09:35:48;8.37;;;5.40;;
7833;SDS011;3962;42.696;23.354;2023-03-19T09:38:18;8.80;;;4.73;;
7833;SDS011;3962;42.696;23.354;2023-03-19T09:40:46;7.90;;;4.80;;
7833;SDS011;3962;42.696;23.354;2023-03-19T09:43:26;7.77;;;5.57;;
7833;SDS011;3962;42.696;23.354;2023-03-19T09:46:04;9.43;;;6.00;;
7833;SDS011;3962;42.696;23.354;2023-03-19T09:48:39;9.77;;;6.77;;
7833;SDS011;3962;42.696;23.354;2023-03-19T09:51:13;12.27;;;7.90;;
7833;SDS011;3962;42.696;23.354;2023-03-19T09:53:46;12.30;;;7.27;;
7833;SDS011;3962;42.696;23.354;2023-03-19T09:56:19;8.17;;;4.93;;
7833;SDS011;3962;42.696;23.354;2023-03-19T09:58:46;10.13;;;5.90;;
7833;SDS011;3962;42.696;23.354;2023-03-19T10:01:19;7.53;;;5.63;;
7833;SDS011;3962;42.696;23.354;2023-03-19T10:03:55;10.67;;;5.67;;
7833;SDS011;3962;42.696;23.354;2023-03-19T10:06:34;10.43;;;6.90;;
7833;SDS011;3962;42.696;23.354;2023-03-19T10:09:15;12.23;;;6.77;;
7833;SDS011;3962;42.696;23.354;2023-03-19T10:11:58;10.60;;;7.60;;
7833;SDS011;3962;42.696;23.354;2023-03-19T10:14:43;10.87;;;6.83;;
7833;SDS011;3962;42.696;23.354;2023-03-19T10:17:21;11.90;;;6.90;;
7833;SDS011;3962;42.696;23.354;2023-03-19T10:19:54;8.63;;;6.27;;
7833;SDS011;3962;42.696;23.354;2023-03-19T10:22:27;10.83;;;6.37;;
7833;SDS011;3962;42.696;23.354;2023-03-19T10:25:00;9.47;;;6.60;;
7833;SDS011;3962;42.696;23.354;2023-03-19T10:27:29;7.50;;;5.27;;
7833;SDS011;3962;42.696;23.354;2023-03-19T10:29:57;10.33;;;6.37;;
7833;SDS011;3962;42.696;23.354;2023-03-19T10:32:26;11.83;;;6.67;;
7833;SDS011;3962;42.696;23.354;2023-03-19T10:35:04;8.97;;;6.27;;
7833;SDS011;3962;42.696;23.354;2023-03-19T10:37:35;11.80;;;6.07;;
7833;SDS011;3962;42.696;23.354;2023-03-19T10:40:05;12.10;;;6.90;;
7833;SDS011;3962;42.696;23.354;2023-03-19T10:42:45;14.20;;;6.33;;
7833;SDS011;3962;42.696;23.354;2023-03-19T10:45:23;12.13;;;7.07;;
7833;SDS011;3962;42.696;23.354;2023-03-19T10:47:52;8.43;;;5.90;;
7833;SDS011;3962;42.696;23.354;2023-03-19T10:50:22;7.30;;;5.90;;
7833;SDS011;3962;42.696;23.354;2023-03-19T10:53:02;9.00;;;5.60;;
7833;SDS011;3962;42.696;23.354;2023-03-19T10:55:33;9.10;;;5.53;;
7833;SDS011;3962;42.696;23.354;2023-03-19T10:58:01;7.17;;;5.30;;
7833;SDS011;3962;42.696;23.354;2023-03-19T11:00:30;10.60;;;5.47;;
7833;SDS011;3962;42.696;23.354;2023-03-19T11:02:59;10.97;;;5.90;;
7833;SDS011;3962;42.696;23.354;2023-03-19T11:05:29;7.30;;;5.33;;
7833;SDS011;3962;42.696;23.354;2023-03-19T11:07:58;7.43;;;5.13;;
7833;SDS011;3962;42.696;23.354;2023-03-19T11:10:27;9.03;;;5.37;;
7833;SDS011;3962;42.696;23.354;2023-03-19T11:12:58;8.87;;;5.60;;
7833;SDS011;3962;42.696;23.354;2023-03-19T11:15:32;6.90;;;5.40;;
7833;SDS011;3962;42.696;23.354;2023-03-19T11:18:04;9.30;;;5.63;;
7833;SDS011;3962;42.696;23.354;2023-03-19T11:20:34;9.30;;;5.83;;
7833;SDS011;3962;42.696;23.354;2023-03-19T11:23:05;6.77;;;5.20;;
7833;SDS011;3962;42.696;23.354;2023-03-19T11:25:37;6.73;;;5.33;;
7833;SDS011;3962;42.696;23.354;2023-03-19T11:28:07;8.83;;;5.80;;
7833;SDS011;3962;42.696;23.354;2023-03-19T11:30:40;7.47;;;5.33;;
7833;SDS011;3962;42.696;23.354;2023-03-19T11:33:16;7.40;;;5.40;;
7833;SDS011;3962;42.696;23.354;2023-03-19T11:35:56;9.70;;;5.60;;
7833;SDS011;3962;42.696;23.354;2023-03-19T11:38:33;9.43;;;5.40;;
7833;SDS011;3962;42.696;23.354;2023-03-19T11:41:08;9.27;;;5.43;;
7833;SDS011;3962;42.696;23.354;2023-03-19T11:43:49;9.90;;;5.60;;
7833;SDS011;3962;42.696;23.354;2023-03-19T11:46:30;8.13;;;5.13;;
7833;SDS011;3962;42.696;23.354;2023-03-19T11:49:14;9.60;;;5.33;;
7833;SDS011;3962;42.696;23.354;2023-03-19T11:51:54;5.87;;;4.67;;
7833;SDS011;3962;42.696;23.354;2023-03-19T11:54:31;7.00;;;4.77;;
7833;SDS011;3962;42.696;23.354;2023-03-19T11:57:06;9.67;;;5.13;;
7833;SDS011;3962;42.696;23.354;2023-03-19T11:59:48;6.70;;;4.40;;
7833;SDS011;3962;42.696;23.354;2023-03-19T12:05:34;7.97;;;4.40;;
7833;SDS011;3962;42.696;23.354;2023-03-19T12:08:08;7.87;;;4.30;;
7833;SDS011;3962;42.696;23.354;2023-03-19T12:10:50;7.37;;;4.57;;
7833;SDS011;3962;42.696;23.354;2023-03-19T12:13:27;6.93;;;4.20;;
7833;SDS011;3962;42.696;23.354;2023-03-19T12:16:19;6.97;;;4.33;;
7833;SDS011;3962;42.696;23.354;2023-03-19T12:21:55;11.70;;;5.23;;
7833;SDS011;3962;42.696;23.354;2023-03-19T12:24:32;6.40;;;4.70;;
7833;SDS011;3962;42.696;23.354;2023-03-19T12:27:18;9.27;;;5.33;;
7833;SDS011;3962;42.696;23.354;2023-03-19T12:29:55;7.53;;;5.10;;
7833;SDS011;3962;42.696;23.354;2023-03-19T12:32:31;9.07;;;5.10;;
7833;SDS011;3962;42.696;23.354;2023-03-19T12:35:08;8.17;;;5.17;;
7833;SDS011;3962;42.696;23.354;2023-03-19T12:37:39;8.47;;;5.23;;
7833;SDS011;3962;42.696;23.354;2023-03-19T12:40:13;7.57;;;4.93;;
7833;SDS011;3962;42.696;23.354;2023-03-19T12:42:47;9.10;;;5.00;;
7833;SDS011;3962;42.696;23.354;2023-03-19T12:45:18;7.87;;;5.30;;
7833;SDS011;3962;42.696;23.354;2023-03-19T12:47:55;7.07;;;5.00;;
7833;SDS011;3962;42.696;23.354;2023-03-19T12:50:25;7.20;;;4.40;;
7833;SDS011;3962;42.696;23.354;2023-03-19T12:52:55;6.67;;;4.43;;
7833;SDS011;3962;42.696;23.354;2023-03-19T12:55:26;6.67;;;4.37;;
7833;SDS011;3962;42.696;23.354;2023-03-19T12:58:02;8.77;;;4.10;;
7833;SDS011;3962;42.696;23.354;2023-03-19T13:00:38;6.33;;;4.33;;
7833;SDS011;3962;42.696;23.354;2023-03-19T13:03:14;5.43;;;4.23;;
7833;SDS011;3962;42.696;23.354;2023-03-19T13:05:47;8.30;;;4.30;;
7833;SDS011;3962;42.696;23.354;2023-03-19T13:08:26;6.00;;;3.83;;
7833;SDS011;3962;42.696;23.354;2023-03-19T13:10:58;6.80;;;3.37;;
7833;SDS011;3962;42.696;23.354;2023-03-19T13:13:30;7.17;;;4.03;;
7833;SDS011;3962;42.696;23.354;2023-03-19T13:16:05;5.70;;;3.90;;
7833;SDS011;3962;42.696;23.354;2023-03-19T13:18:45;7.13;;;3.90;;
7833;SDS011;3962;42.696;23.354;2023-03-19T13:21:21;5.47;;;3.70;;
7833;SDS011;3962;42.696;23.354;2023-03-19T13:23:50;6.73;;;3.90;;
7833;SDS011;3962;42.696;23.354;2023-03-19T13:26:27;7.27;;;4.80;;
7833;SDS011;3962;42.696;23.354;2023-03-19T13:28:58;10.60;;;5.17;;
7833;SDS011;3962;42.696;23.354;2023-03-19T13:31:27;9.60;;;4.47;;
7833;SDS011;3962;42.696;23.354;2023-03-19T13:34:01;5.83;;;3.33;;
7833;SDS011;3962;42.696;23.354;2023-03-19T13:36:30;8.17;;;3.80;;
7833;SDS011;3962;42.696;23.354;2023-03-19T13:39:02;6.13;;;3.10;;
7833;SDS011;3962;42.696;23.354;2023-03-19T13:41:47;4.83;;;3.00;;
7833;SDS011;3962;42.696;23.354;2023-03-19T13:44:38;6.10;;;3.77;;
7833;SDS011;3962;42.696;23.354;2023-03-19T13:50:22;4.73;;;3.57;;
7833;SDS011;3962;42.696;23.354;2023-03-19T13:52:53;4.90;;;2.80;;
7833;SDS011;3962;42.696;23.354;2023-03-19T13:55:44;5.07;;;2.43;;
7833;SDS011;3962;42.696;23.354;2023-03-19T13:58:18;2.93;;;2.30;;
7833;SDS011;3962;42.696;23.354;2023-03-19T14:01:04;4.87;;;3.00;;
7833;SDS011;3962;42.696;23.354;2023-03-19T14:03:32;4.27;;;2.97;;
7833;SDS011;3962;42.696;23.354;2023-03-19T14:06:02;6.43;;;2.90;;
7833;SDS011;3962;42.696;23.354;2023-03-19T14:08:31;3.63;;;2.53;;
7833;SDS011;3962;42.696;23.354;2023-03-19T14:11:07;7.13;;;2.97;;
7833;SDS011;3962;42.696;23.354;2023-03-19T14:13:37;3.83;;;2.87;;
7833;SDS011;3962;42.696;23.354;2023-03-19T14:16:09;6.80;;;3.23;;
7833;SDS011;3962;42.696;23.354;2023-03-19T14:18:41;6.07;;;3.63;;
7833;SDS011;3962;42.696;23.354;2023-03-19T14:21:12;6.80;;;4.20;;
7833;SDS011;3962;42.696;23.354;2023-03-19T14:23:41;6.30;;;3.93;;
7833;SDS011;3962;42.696;23.354;2023-03-19T14:26:18;9.77;;;4.00;;
7833;SDS011;3962;42.696;23.354;2023-03-19T14:28:51;8.33;;;3.87;;
7833;SDS011;3962;42.696;23.354;2023-03-19T14:31:27;8.03;;;3.90;;
7833;SDS011;3962;42.696;23.354;2023-03-19T14:34:00;6.30;;;3.70;;
7833;SDS011;3962;42.696;23.354;2023-03-19T14:36:33;6.90;;;3.90;;
7833;SDS011;3962;42.696;23.354;2023-03-19T14:39:06;7.63;;;4.20;;
7833;SDS011;3962;42.696;23.354;2023-03-19T14:41:41;6.50;;;4.03;;
7833;SDS011;3962;42.696;23.354;2023-03-19T14:47:25;6.03;;;4.10;;
7833;SDS011;3962;42.696;23.354;2023-03-19T14:50:14;7.40;;;4.10;;
7833;SDS011;3962;42.696;23.354;2023-03-19T14:52:55;8.10;;;3.90;;
7833;SDS011;3962;42.696;23.354;2023-03-19T14:55:36;8.87;;;4.93;;
7833;SDS011;3962;42.696;23.354;2023-03-19T14:58:03;7.10;;;4.40;;
7833;SDS011;3962;42.696;23.354;2023-03-19T15:00:36;8.43;;;4.57;;
7833;SDS011;3962;42.696;23.354;2023-03-19T15:03:07;6.30;;;4.10;;
7833;SDS011;3962;42.696;23.354;2023-03-19T15:05:45;6.23;;;4.00;;
7833;SDS011;3962;42.696;23.354;2023-03-19T15:08:16;7.93;;;3.87;;
7833;SDS011;3962;42.696;23.354;2023-03-19T15:10:49;5.10;;;3.47;;
7833;SDS011;3962;42.696;23.354;2023-03-19T15:13:25;6.67;;;4.27;;
7833;SDS011;3962;42.696;23.354;2023-03-19T15:16:06;7.43;;;3.67;;